createdAt,value
2023-01-19T00:01:46.057Z,56.70
2023-01-19T00:04:14.654Z,55.22
2023-01-19T00:06:42.876Z,54.08
2023-01-19T00:09:11.160Z,58.88
2023-01-19T00:11:39.608Z,54.45
2023-01-19T00:14:07.882Z,52.22
2023-01-19T00:16:36.140Z,56.25
2023-01-19T00:19:04.532Z,48.22
2023-01-19T00:21:32.829Z,54.35
2023-01-19T00:24:01.453Z,59.95
2023-01-19T00:26:30.174Z,55.25
2023-01-19T00:28:59.016Z,54.80
2023-01-19T00:31:30.794Z,56.15
2023-01-19T00:33:58.935Z,58.35
2023-01-19T00:36:27.048Z,55.85
2023-01-19T00:38:55.253Z,54.78
2023-01-19T00:41:43.781Z,58.90
2023-01-19T00:44:13.357Z,54.55
2023-01-19T00:46:41.699Z,56.05
2023-01-19T00:49:11.101Z,54.10
2023-01-19T00:51:40.418Z,54.15
2023-01-19T00:54:11.003Z,54.65
2023-01-19T00:56:39.123Z,58.35
2023-01-19T00:59:07.762Z,51.30
2023-01-19T01:01:44.962Z,48.15
2023-01-19T01:04:14.872Z,50.72
2023-01-19T01:06:42.971Z,46.65
2023-01-19T01:09:13.687Z,49.30
2023-01-19T01:11:43.905Z,49.13
2023-01-19T01:14:13.442Z,54.80
2023-01-19T01:16:42.368Z,53.38
2023-01-19T01:19:10.697Z,49.28
2023-01-19T01:21:39.363Z,49.70
2023-01-19T01:24:08.265Z,52.38
2023-01-19T01:26:36.548Z,48.78
2023-01-19T01:29:06.942Z,51.00
2023-01-19T01:31:35.949Z,49.88
2023-01-19T01:34:04.422Z,53.17
2023-01-19T01:36:33.823Z,57.78
2023-01-19T01:39:02.635Z,52.25
2023-01-19T01:41:31.824Z,46.60
2023-01-19T01:44:02.467Z,51.55
2023-01-19T01:46:31.941Z,45.67
2023-01-19T01:49:16.788Z,51.95
2023-01-19T01:51:49.224Z,46.78
2023-01-19T01:54:26.104Z,48.15
2023-01-19T01:57:00.116Z,53.88
2023-01-19T01:59:39.800Z,51.80
2023-01-19T02:02:42.472Z,49.90
2023-01-19T02:05:18.267Z,49.13
2023-01-19T02:08:05.151Z,52.35
2023-01-19T02:10:53.630Z,43.13
2023-01-19T02:13:23.307Z,41.53
2023-01-19T02:15:54.370Z,44.92
2023-01-19T02:18:24.853Z,45.22
2023-01-19T02:21:36.498Z,41.58
2023-01-19T02:24:05.723Z,43.42
2023-01-19T02:26:44.902Z,42.10
2023-01-19T02:29:21.069Z,43.72
2023-01-19T02:31:49.825Z,42.93
2023-01-19T02:34:20.821Z,46.30
2023-01-19T02:37:13.633Z,49.45
2023-01-19T02:40:03.221Z,52.20
2023-01-19T02:42:38.002Z,46.13
2023-01-19T02:45:10.267Z,47.85
2023-01-19T02:47:41.158Z,45.20
2023-01-19T02:50:33.831Z,41.75
2023-01-19T02:53:42.982Z,43.58
2023-01-19T02:56:45.143Z,38.80
2023-01-19T02:59:39.834Z,40.17
2023-01-19T03:02:23.307Z,37.25
2023-01-19T03:05:22.790Z,39.03
2023-01-19T03:07:54.439Z,40.92
2023-01-19T03:10:59.661Z,41.13
2023-01-19T03:13:59.101Z,34.67
2023-01-19T03:16:37.814Z,37.63
2023-01-19T03:19:13.259Z,35.03
2023-01-19T03:21:47.822Z,27.05
2023-01-19T03:24:18.374Z,31.55
2023-01-19T03:26:53.694Z,30.13
2023-01-19T03:29:25.621Z,29.55
2023-01-19T03:31:56.172Z,28.77
2023-01-19T03:34:25.172Z,23.70
2023-01-19T03:36:58.292Z,26.90
2023-01-19T03:39:29.747Z,29.35
2023-01-19T03:42:06.585Z,29.02
2023-01-19T03:44:38.503Z,25.73
2023-01-19T03:47:09.707Z,30.90
2023-01-19T03:49:40.058Z,28.55
2023-01-19T03:52:08.386Z,29.80
2023-01-19T03:54:36.738Z,31.15
2023-01-19T03:57:05.302Z,26.13
2023-01-19T03:59:33.975Z,27.55
2023-01-19T04:02:02.586Z,28.52
2023-01-19T04:04:30.697Z,25.67
2023-01-19T04:06:59.096Z,27.38
2023-01-19T04:09:28.026Z,24.73
2023-01-19T04:11:58.008Z,28.50
2023-01-19T04:14:25.928Z,25.98
2023-01-19T04:16:54.169Z,27.08
2023-01-19T04:19:22.727Z,24.40
2023-01-19T04:21:51.579Z,22.25
2023-01-19T04:24:20.126Z,21.40
2023-01-19T04:26:48.723Z,21.60
2023-01-19T04:29:17.373Z,25.90
